Главная страница
METAR-TAF:

METAR-TAF

Аэропорты :

Энонтекиё, Финляндия

широта: 68-21-52N, долгота: 023-25-39E, высота над уровнем моря: 308 м

Текущие метеонаблюдения

Эта сводка был подготовлена 33 минут назад, в 19:50 UTC
Ветер 5 Узел от восточный, изменяющийся между северо-восточный и восточно-юго-восточный
Температура 13°C
Влажность 62%
Давление 1013 hPa
Видимость 10 км и более
Нет облачности ниже 1500 м, и нет кучево-дождевой облачности

METAR: EFET 131950Z AUTO 08005KT 040V110 CAVOK 13/06 Q1013

Время: 23:23 (20:23 UTC)


TAF: отсутствует

Метеонаблюдения и прогнозы для более 4000 аэропортов (сводки METAR и TAF).

Имеющиеся станции представлены на карте желтыми и красными точками.

Чтобы увидеть название станции, наведите на нее мышь.

Затем щелкните, чтобы увидеть метеонаблюдения и метеопрогнозы.

Управление картой: чтобы увеличить масштаб, щелкните зеленые кнопки с черным крестиком; чтобы уменьшить масштаб, щелкните зеленую кнопку с тире; для просмотра соседних карт щелкайте зеленые стрелки.


METAR-TAF: